Time;durP1;ratioP1;P1;durP2;ratioP2;P2;SDS_P1;SDS_P2;PMS_P1;PMS_P2;Temp;Humidity;BMP_temperature;BMP_pressure;BME280_temperature;BME280_humidity;BME280_pressure;Samples;Min_cycle;Max_cycle;Signal;HPM_P1;HPM_P2
2023/04/06 00:00:09;;;;;;;15.75;7.22;;;7.00;64.30;;;;;;5073265;28;20036;-76
2023/04/06 00:02:35;;;;;;;13.75;6.43;;;7.10;64.60;;;;;;5072478;28;20043;-77
2023/04/06 00:05:01;;;;;;;14.65;7.40;;;7.10;64.70;;;;;;5073215;28;20123;-76
2023/04/06 00:07:28;;;;;;;13.82;7.18;;;7.10;64.90;;;;;;5073331;28;20033;-76
2023/04/06 00:09:53;;;;;;;15.55;7.38;;;7.10;64.90;;;;;;5072984;28;20045;-76
2023/04/06 00:12:19;;;;;;;13.48;7.32;;;7.10;65.00;;;;;;5073141;28;20021;-77
2023/04/06 00:14:44;;;;;;;13.82;7.78;;;7.00;64.80;;;;;;5073096;28;20033;-76
2023/04/06 00:17:11;;;;;;;13.88;7.32;;;7.00;64.70;;;;;;5073201;28;20057;-76
2023/04/06 00:19:36;;;;;;;14.38;7.63;;;7.00;65.10;;;;;;5073059;28;20048;-76
2023/04/06 00:22:02;;;;;;;16.63;8.10;;;7.00;65.20;;;;;;5073027;28;20037;-76
2023/04/06 00:24:28;;;;;;;13.43;7.43;;;7.00;66.00;;;;;;5072973;28;20043;-76
2023/04/06 00:26:53;;;;;;;14.48;7.40;;;7.00;64.90;;;;;;5073055;28;20075;-76
2023/04/06 00:29:19;;;;;;;14.18;7.35;;;7.00;64.80;;;;;;5072907;28;20079;-76
2023/04/06 00:31:45;;;;;;;14.55;7.50;;;7.00;64.70;;;;;;5072946;28;20040;-76
2023/04/06 00:34:11;;;;;;;15.00;7.38;;;7.00;64.80;;;;;;5072923;28;20032;-76
2023/04/06 00:36:36;;;;;;;16.58;8.40;;;6.90;64.50;;;;;;5071881;28;20017;-76
2023/04/06 00:39:02;;;;;;;17.90;8.32;;;6.90;65.50;;;;;;5072856;28;20037;-76
2023/04/06 00:41:28;;;;;;;16.33;8.18;;;6.90;64.30;;;;;;5072869;28;20033;-76
2023/04/06 00:43:54;;;;;;;16.73;7.75;;;6.90;64.60;;;;;;5072852;28;20051;-76
2023/04/06 00:46:20;;;;;;;17.35;8.00;;;6.90;64.60;;;;;;5072817;28;20036;-77
2023/04/06 00:48:45;;;;;;;16.55;7.93;;;6.90;65.00;;;;;;5072856;28;20033;-76
2023/04/06 00:51:11;;;;;;;14.50;7.00;;;6.90;65.20;;;;;;5072563;28;20029;-76
2023/04/06 00:53:37;;;;;;;14.13;7.85;;;6.80;65.50;;;;;;5072808;28;20029;-76
2023/04/06 00:56:02;;;;;;;14.85;7.82;;;6.80;65.80;;;;;;5071690;28;20033;-76
2023/04/06 00:58:28;;;;;;;12.80;7.05;;;6.80;65.90;;;;;;5071688;28;20105;-76
2023/04/06 01:00:54;;;;;;;14.32;7.80;;;6.70;66.00;;;;;;5072664;28;20029;-76
2023/04/06 01:03:20;;;;;;;14.98;7.43;;;6.70;66.30;;;;;;5071645;28;20032;-76
2023/04/06 01:05:45;;;;;;;17.40;7.50;;;6.70;66.40;;;;;;5071769;28;20032;-76
2023/04/06 01:08:11;;;;;;;14.63;7.85;;;6.60;66.10;;;;;;5072527;28;20028;-77
2023/04/06 01:10:37;;;;;;;16.60;8.38;;;6.60;66.30;;;;;;5072568;28;20029;-76
2023/04/06 01:13:02;;;;;;;14.32;7.13;;;6.60;66.50;;;;;;5072546;28;20033;-76
2023/04/06 01:15:29;;;;;;;16.35;8.63;;;6.60;66.80;;;;;;5071648;28;20084;-76
2023/04/06 01:17:55;;;;;;;13.07;7.05;;;6.50;67.30;;;;;;5072536;28;20051;-76
2023/04/06 01:20:21;;;;;;;14.98;7.18;;;6.50;67.30;;;;;;5072486;28;20045;-77
2023/04/06 01:22:46;;;;;;;12.85;7.03;;;6.40;67.50;;;;;;5073999;28;20029;-77
2023/04/06 01:25:12;;;;;;;12.50;6.90;;;6.40;67.60;;;;;;5076080;28;20087;-76
2023/04/06 01:27:38;;;;;;;13.30;7.25;;;6.40;67.60;;;;;;5075979;28;20029;-76
2023/04/06 01:30:04;;;;;;;14.57;6.88;;;6.40;67.40;;;;;;5074906;28;20179;-76
2023/04/06 01:32:30;;;;;;;14.38;7.20;;;6.40;66.70;;;;;;5075923;28;20090;-76
2023/04/06 01:34:55;;;;;;;14.57;6.63;;;6.30;66.70;;;;;;5075904;28;20025;-77
2023/04/06 01:37:21;;;;;;;16.13;7.38;;;6.30;67.00;;;;;;5075881;28;20055;-76
2023/04/06 01:39:47;;;;;;;14.63;6.57;;;6.20;67.20;;;;;;5075802;28;20056;-76
2023/04/06 01:42:12;;;;;;;19.17;6.75;;;6.20;67.40;;;;;;5074733;28;20064;-76
2023/04/06 01:44:38;;;;;;;13.52;7.25;;;6.20;67.70;;;;;;5058263;28;20085;-76
2023/04/06 01:47:04;;;;;;;14.55;6.18;;;6.30;67.90;;;;;;5074641;28;20040;-76
2023/04/06 01:49:30;;;;;;;13.25;6.70;;;6.20;67.90;;;;;;5075539;28;20040;-76
2023/04/06 01:51:55;;;;;;;13.48;6.93;;;6.20;67.90;;;;;;5075450;28;20049;-76
2023/04/06 01:54:21;;;;;;;12.55;6.40;;;6.10;68.20;;;;;;5074477;28;20031;-76
2023/04/06 01:56:47;;;;;;;15.18;7.30;;;5.90;68.50;;;;;;5075488;28;20017;-76
2023/04/06 01:59:12;;;;;;;11.13;6.82;;;5.80;69.20;;;;;;5074575;28;20044;-76
2023/04/06 02:01:38;;;;;;;15.82;7.43;;;5.80;69.00;;;;;;5075360;28;20033;-76
2023/04/06 02:04:04;;;;;;;14.30;7.20;;;5.80;69.00;;;;;;5075475;28;20031;-76
2023/04/06 02:06:30;;;;;;;16.52;6.53;;;5.80;69.50;;;;;;5075333;28;20037;-76
2023/04/06 02:08:56;;;;;;;10.60;5.72;;;5.80;69.50;;;;;;5075350;28;20028;-76
2023/04/06 02:11:21;;;;;;;11.27;6.00;;;5.80;69.40;;;;;;5075265;28;20120;-76
2023/04/06 02:13:47;;;;;;;10.90;5.63;;;5.90;69.70;;;;;;5075347;28;20048;-76
2023/04/06 02:16:13;;;;;;;14.77;6.68;;;5.90;69.90;;;;;;5075256;28;20037;-76
2023/04/06 02:18:38;;;;;;;13.82;6.63;;;6.00;69.80;;;;;;5074206;28;20021;-76
2023/04/06 02:21:04;;;;;;;13.18;6.40;;;6.00;69.50;;;;;;5074155;28;20048;-76
2023/04/06 02:23:30;;;;;;;13.98;6.32;;;6.00;69.30;;;;;;5074213;28;20039;-76
2023/04/06 02:25:55;;;;;;;12.35;6.38;;;5.90;70.10;;;;;;5073934;28;20036;-76
2023/04/06 02:28:21;;;;;;;13.15;6.80;;;6.00;69.30;;;;;;5073918;28;20048;-76
2023/04/06 02:30:46;;;;;;;15.23;6.65;;;5.90;69.30;;;;;;5057219;28;20025;-76
2023/04/06 02:33:12;;;;;;;15.57;6.63;;;5.90;69.90;;;;;;5074483;28;20032;-76
2023/04/06 02:35:38;;;;;;;15.50;6.70;;;5.70;70.90;;;;;;5073102;28;20093;-76
2023/04/06 02:38:03;;;;;;;11.73;6.25;;;5.60;72.50;;;;;;5074701;28;20055;-76
2023/04/06 02:40:29;;;;;;;10.73;5.95;;;5.50;72.20;;;;;;5074670;28;20055;-76
2023/04/06 02:42:55;;;;;;;13.48;6.10;;;5.50;72.30;;;;;;5073561;28;20075;-76
2023/04/06 02:45:20;;;;;;;13.38;6.80;;;5.60;72.20;;;;;;5074578;28;20039;-76
2023/04/06 02:47:46;;;;;;;10.88;6.20;;;5.70;72.40;;;;;;5073515;28;20025;-76
2023/04/06 02:50:11;;;;;;;13.10;7.15;;;5.80;72.60;;;;;;5074388;28;20099;-76
2023/04/06 02:52:37;;;;;;;15.18;6.78;;;5.60;72.70;;;;;;5074283;28;20049;-76
2023/04/06 02:55:03;;;;;;;11.77;6.32;;;5.60;72.90;;;;;;5073523;28;20432;-75
2023/04/06 02:57:29;;;;;;;15.55;7.03;;;5.70;73.00;;;;;;5074516;28;20089;-76
2023/04/06 02:59:55;;;;;;;16.00;6.88;;;5.80;73.00;;;;;;5074418;28;20040;-76
2023/04/06 03:02:20;;;;;;;14.70;7.18;;;5.80;72.90;;;;;;5073329;28;20037;-76
2023/04/06 03:04:46;;;;;;;12.43;6.13;;;5.90;72.90;;;;;;5074185;28;20031;-76
2023/04/06 03:07:12;;;;;;;13.88;7.18;;;5.90;72.80;;;;;;5073277;28;20039;-76
2023/04/06 03:09:38;;;;;;;17.60;7.50;;;5.90;73.50;;;;;;5074024;28;20032;-76
2023/04/06 03:12:04;;;;;;;14.98;7.25;;;5.90;73.30;;;;;;5073142;28;20432;-76
2023/04/06 03:14:30;;;;;;;14.40;7.68;;;6.00;73.40;;;;;;5073105;28;20032;-76
2023/04/06 03:16:55;;;;;;;16.45;7.13;;;6.00;73.20;;;;;;5073941;28;20036;-76
2023/04/06 03:19:21;;;;;;;15.80;7.45;;;6.00;73.10;;;;;;5073000;28;20029;-76
2023/04/06 03:21:47;;;;;;;15.95;7.72;;;6.00;73.60;;;;;;5073032;28;20059;-76
2023/04/06 03:24:13;;;;;;;12.40;6.13;;;5.90;73.60;;;;;;5073849;28;20060;-76
2023/04/06 03:26:39;;;;;;;14.07;6.88;;;6.00;73.90;;;;;;5073716;28;20066;-76
2023/04/06 03:29:05;;;;;;;14.40;7.13;;;6.00;73.70;;;;;;5073689;28;20025;-76
2023/04/06 03:31:30;;;;;;;18.77;8.00;;;6.00;74.50;;;;;;5073836;28;20025;-76
2023/04/06 03:33:56;;;;;;;15.75;7.57;;;5.90;74.90;;;;;;5072705;28;20021;-76
2023/04/06 03:36:22;;;;;;;15.27;7.18;;;5.70;74.60;;;;;;5073608;28;20068;-76
2023/04/06 03:38:47;;;;;;;13.95;7.50;;;5.80;75.30;;;;;;5072577;28;20041;-76
2023/04/06 03:41:13;;;;;;;14.90;7.15;;;5.80;75.40;;;;;;5073528;28;20043;-76
2023/04/06 03:43:39;;;;;;;13.60;6.93;;;5.90;75.50;;;;;;5072585;28;20056;-76
2023/04/06 03:46:04;;;;;;;13.70;6.70;;;6.00;75.90;;;;;;5072231;28;20054;-76
2023/04/06 03:48:30;;;;;;;14.93;7.43;;;5.90;75.60;;;;;;5072429;28;20079;-76
2023/04/06 03:50:56;;;;;;;15.52;8.13;;;6.00;75.50;;;;;;5073304;28;20025;-76
2023/04/06 03:53:21;;;;;;;17.92;7.70;;;6.00;75.10;;;;;;5073230;28;20080;-76
2023/04/06 03:55:47;;;;;;;16.58;8.27;;;5.80;75.30;;;;;;5073345;28;20052;-76
2023/04/06 03:58:12;;;;;;;16.13;7.88;;;5.80;75.60;;;;;;5072259;28;20025;-76
2023/04/06 04:00:38;;;;;;;18.65;8.70;;;5.70;76.10;;;;;;5073238;28;20021;-76
2023/04/06 04:03:04;;;;;;;17.88;9.13;;;5.70;76.80;;;;;;5072220;28;20112;-76
2023/04/06 04:05:29;;;;;;;16.45;7.97;;;5.60;76.60;;;;;;5073217;28;20035;-76
2023/04/06 04:07:55;;;;;;;18.63;8.05;;;5.60;77.00;;;;;;5073340;28;20025;-76
2023/04/06 04:10:21;;;;;;;14.88;7.75;;;5.60;77.20;;;;;;5073107;28;20037;-76
2023/04/06 04:12:46;;;;;;;15.57;7.93;;;5.60;76.70;;;;;;5073129;28;20029;-76
2023/04/06 04:15:12;;;;;;;16.52;8.32;;;5.60;76.70;;;;;;5073080;28;20025;-76
2023/04/06 04:17:38;;;;;;;15.48;7.78;;;5.70;76.30;;;;;;5072051;28;20029;-76
2023/04/06 04:20:04;;;;;;;15.98;7.88;;;5.70;76.30;;;;;;5072095;28;20045;-76
2023/04/06 04:22:29;;;;;;;15.05;8.10;;;5.60;76.80;;;;;;5073050;28;20029;-76
2023/04/06 04:24:55;;;;;;;15.27;7.70;;;5.60;76.70;;;;;;5072112;28;20040;-76
2023/04/06 04:27:21;;;;;;;15.50;8.18;;;5.50;77.20;;;;;;5072909;28;20055;-75
2023/04/06 04:29:47;;;;;;;17.00;8.25;;;5.50;77.60;;;;;;5073064;28;20029;-76
2023/04/06 04:32:13;;;;;;;21.80;8.25;;;5.50;77.40;;;;;;5072929;28;20021;-76
2023/04/06 04:34:40;;;;;;;18.25;8.68;;;5.60;77.50;;;;;;5071958;28;20048;-76
2023/04/06 04:37:06;;;;;;;20.25;8.43;;;5.70;77.20;;;;;;5072180;28;20039;-76
2023/04/06 04:39:31;;;;;;;17.15;8.35;;;5.70;77.70;;;;;;5072887;28;20033;-76
2023/04/06 04:41:57;;;;;;;21.35;9.40;;;5.70;77.20;;;;;;5072869;28;20025;-76
2023/04/06 04:44:23;;;;;;;19.48;9.00;;;5.60;77.60;;;;;;5072841;28;20025;-76
2023/04/06 04:46:48;;;;;;;19.45;9.13;;;5.60;77.10;;;;;;5072838;28;20444;-76
2023/04/06 04:49:14;;;;;;;18.98;8.27;;;5.70;77.00;;;;;;5072729;28;20037;-76
2023/04/06 04:51:40;;;;;;;18.23;8.40;;;5.60;76.70;;;;;;5071682;28;20042;-76
2023/04/06 04:54:06;;;;;;;17.90;8.45;;;5.70;77.00;;;;;;5072740;28;20033;-76
2023/04/06 04:56:31;;;;;;;14.40;7.95;;;5.80;77.10;;;;;;5072886;28;20060;-76
2023/04/06 04:58:57;;;;;;;15.77;8.55;;;5.80;77.00;;;;;;5076018;28;20021;-76
2023/04/06 05:01:22;;;;;;;18.25;8.98;;;5.80;76.90;;;;;;5076517;28;20032;-76
2023/04/06 05:03:48;;;;;;;17.52;8.57;;;5.80;76.90;;;;;;5076583;28;20040;-76
2023/04/06 05:06:14;;;;;;;19.50;9.00;;;5.80;76.90;;;;;;5076434;28;20058;-76
2023/04/06 05:08:41;;;;;;;18.48;8.95;;;5.70;77.10;;;;;;5076332;28;20060;-76
2023/04/06 05:11:06;;;;;;;16.50;8.43;;;5.70;77.00;;;;;;5076390;28;20025;-77
2023/04/06 05:13:32;;;;;;;20.75;9.77;;;5.70;77.10;;;;;;5076276;28;20036;-76
2023/04/06 05:15:57;;;;;;;21.08;9.25;;;5.60;77.40;;;;;;5076252;28;20029;-76
2023/04/06 05:18:23;;;;;;;18.17;9.20;;;5.60;77.60;;;;;;5075333;28;20049;-76
2023/04/06 05:20:49;;;;;;;18.27;9.55;;;5.60;78.00;;;;;;5076143;28;20036;-76
2023/04/06 05:23:15;;;;;;;20.80;8.52;;;5.60;77.90;;;;;;5075148;28;20021;-76
2023/04/06 05:25:41;;;;;;;20.23;9.63;;;5.60;77.80;;;;;;5076092;28;20032;-76
2023/04/06 05:28:06;;;;;;;18.20;8.88;;;5.60;77.90;;;;;;5075871;28;20056;-75
2023/04/06 05:30:32;;;;;;;19.98;8.88;;;5.70;78.10;;;;;;5075933;28;20037;-75
2023/04/06 05:32:59;;;;;;;19.38;9.50;;;5.70;77.90;;;;;;5075004;28;20028;-75
2023/04/06 05:35:24;;;;;;;17.73;9.23;;;5.70;78.20;;;;;;5075910;28;20013;-75
2023/04/06 05:37:50;;;;;;;20.75;9.00;;;5.70;78.40;;;;;;5075834;28;20084;-75
2023/04/06 05:40:16;;;;;;;19.45;9.45;;;5.70;78.40;;;;;;5075846;28;20028;-75
2023/04/06 05:42:42;;;;;;;20.45;10.02;;;5.80;78.40;;;;;;5075800;28;20463;-74
2023/04/06 05:45:10;;;;;;;24.23;9.98;;;5.80;78.40;;;;;;5075748;28;20021;-75
2023/04/06 05:47:36;;;;;;;23.75;9.52;;;5.80;78.20;;;;;;5075545;28;20017;-75
2023/04/06 05:50:03;;;;;;;20.75;9.55;;;5.80;78.20;;;;;;5075561;28;20032;-75
2023/04/06 05:52:29;;;;;;;17.90;9.20;;;5.80;78.30;;;;;;5075290;28;20123;-75
2023/04/06 05:54:55;;;;;;;21.20;9.70;;;5.90;79.50;;;;;;5075549;28;20028;-75
2023/04/06 05:57:21;;;;;;;21.55;10.32;;;5.90;78.20;;;;;;5075615;28;20513;-75
2023/04/06 05:59:46;;;;;;;19.75;9.63;;;6.00;77.50;;;;;;5074604;28;20025;-75
2023/04/06 06:02:12;;;;;;;20.35;9.15;;;5.90;77.00;;;;;;5075348;28;20056;-75
2023/04/06 06:04:38;;;;;;;21.52;9.38;;;5.90;77.00;;;;;;5075484;28;20037;-75
2023/04/06 06:07:03;;;;;;;17.45;9.05;;;6.00;77.20;;;;;;5075319;28;20092;-75
2023/04/06 06:09:29;;;;;;;22.98;9.65;;;6.00;77.40;;;;;;5074943;28;20049;-76
2023/04/06 06:11:55;;;;;;;20.48;8.90;;;6.00;77.70;;;;;;5075245;28;20055;-75
2023/04/06 06:14:21;;;;;;;23.98;10.27;;;6.10;78.10;;;;;;5075174;28;20029;-75
2023/04/06 06:16:47;;;;;;;17.50;9.30;;;6.10;77.50;;;;;;5075124;28;20071;-75
2023/04/06 06:19:13;;;;;;;20.52;9.85;;;6.10;78.90;;;;;;5075116;28;20029;-75
2023/04/06 06:21:39;;;;;;;22.38;9.90;;;6.10;78.20;;;;;;5075053;28;20036;-75
2023/04/06 06:24:05;;;;;;;20.92;9.43;;;6.20;77.90;;;;;;5074070;28;20029;-75
2023/04/06 06:26:31;;;;;;;18.98;9.75;;;6.20;77.90;;;;;;5074896;28;20052;-74
2023/04/06 06:28:56;;;;;;;21.35;9.48;;;6.30;76.30;;;;;;5074829;28;20028;-75
2023/04/06 06:31:22;;;;;;;18.55;9.57;;;6.30;76.80;;;;;;5074864;28;20085;-75
2023/04/06 06:33:51;;;;;;;24.95;10.48;;;6.30;77.20;;;;;;5074001;28;20021;-75
2023/04/06 06:36:17;;;;;;;19.08;9.45;;;6.30;77.50;;;;;;5074788;28;20081;-75
2023/04/06 06:38:44;;;;;;;19.13;8.73;;;6.30;76.40;;;;;;5074733;28;20074;-75
2023/04/06 06:41:11;;;;;;;23.17;8.70;;;6.30;76.10;;;;;;5074715;28;20025;-75
2023/04/06 06:43:37;;;;;;;20.83;9.52;;;6.40;76.00;;;;;;5074692;28;20056;-75
2023/04/06 06:46:03;;;;;;;17.98;8.73;;;6.40;76.90;;;;;;5074607;28;20045;-75
2023/04/06 06:48:29;;;;;;;19.13;8.90;;;6.50;76.00;;;;;;5074484;28;20104;-75
2023/04/06 06:50:55;;;;;;;20.13;9.10;;;6.50;77.70;;;;;;5074492;28;20021;-75
2023/04/06 06:53:20;;;;;;;20.25;9.00;;;6.60;76.30;;;;;;5073404;28;20060;-75
2023/04/06 06:55:48;;;;;;;26.63;9.73;;;6.60;76.50;;;;;;5074388;28;20025;-75
2023/04/06 06:58:14;;;;;;;20.67;9.07;;;6.60;76.70;;;;;;5074390;28;20020;-75
2023/04/06 07:00:40;;;;;;;20.85;9.15;;;6.70;76.70;;;;;;5074452;28;20037;-75
2023/04/06 07:03:05;;;;;;;21.13;10.07;;;6.70;75.70;;;;;;5056588;28;20029;-75
2023/04/06 07:05:31;;;;;;;23.00;9.30;;;6.80;75.60;;;;;;5074215;28;20052;-75
2023/04/06 07:07:56;;;;;;;19.55;8.93;;;6.80;76.10;;;;;;5074138;28;20033;-75
2023/04/06 07:10:22;;;;;;;19.50;8.77;;;6.80;76.30;;;;;;5073048;28;20059;-75
2023/04/06 07:12:48;;;;;;;20.20;9.15;;;6.80;76.00;;;;;;5074113;28;20017;-75
2023/04/06 07:15:14;;;;;;;18.83;8.70;;;6.80;75.80;;;;;;5073059;28;20043;-75
2023/04/06 07:17:41;;;;;;;19.52;8.85;;;6.90;76.30;;;;;;5073989;28;20029;-75
2023/04/06 07:20:07;;;;;;;17.92;8.52;;;6.90;75.80;;;;;;5073356;28;20021;-75
2023/04/06 07:22:33;;;;;;;20.15;9.43;;;6.90;76.90;;;;;;5073893;28;20033;-75
2023/04/06 07:24:58;;;;;;;17.08;8.30;;;7.00;76.20;;;;;;5073866;28;20040;-75
2023/04/06 07:27:24;;;;;;;20.48;9.45;;;7.10;76.60;;;;;;5072868;28;20036;-75
2023/04/06 07:29:50;;;;;;;21.52;8.68;;;7.10;77.80;;;;;;5073819;28;20043;-75
2023/04/06 07:32:15;;;;;;;18.80;8.65;;;7.20;77.10;;;;;;5073873;28;20029;-75
2023/04/06 07:34:41;;;;;;;21.38;8.63;;;7.30;76.90;;;;;;5073651;28;20092;-75
2023/04/06 07:37:07;;;;;;;21.50;9.48;;;7.30;75.90;;;;;;5073600;28;20033;-75
2023/04/06 07:39:33;;;;;;;19.80;8.98;;;7.30;75.50;;;;;;5072606;28;20029;-75
2023/04/06 07:41:59;;;;;;;18.50;8.13;;;7.40;75.10;;;;;;5073502;28;20033;-75
2023/04/06 07:44:25;;;;;;;20.02;8.55;;;7.40;74.40;;;;;;5073549;28;20052;-75
2023/04/06 07:46:50;;;;;;;16.52;7.97;;;7.40;75.20;;;;;;5073404;28;20028;-76
2023/04/06 07:49:16;;;;;;;21.00;10.32;;;7.40;75.00;;;;;;5073213;28;20068;-75
2023/04/06 07:51:42;;;;;;;18.88;8.15;;;7.50;74.50;;;;;;5072124;28;20036;-75
2023/04/06 07:54:07;;;;;;;21.67;7.85;;;7.50;74.50;;;;;;5072489;28;20081;-74
2023/04/06 07:56:33;;;;;;;21.60;8.85;;;7.50;74.60;;;;;;5073355;28;20025;-75
2023/04/06 07:58:59;;;;;;;19.52;9.80;;;7.50;74.80;;;;;;5073264;28;20039;-75
2023/04/06 08:37:33;;;;;;;21.30;11.45;;;7.30;77.10;;;;;;5110792;27;20386;-74
2023/04/06 08:39:59;;;;;;;17.77;8.82;;;9.00;73.60;;;;;;5110629;28;20032;-75
2023/04/06 08:42:28;;;;;;;18.30;9.32;;;8.90;73.50;;;;;;5110685;28;20080;-75
2023/04/06 08:44:55;;;;;;;20.65;10.43;;;8.80;72.70;;;;;;5143604;28;20028;-75
2023/04/06 08:47:21;;;;;;;17.83;8.88;;;8.80;73.40;;;;;;5110620;28;20046;-75
2023/04/06 08:49:48;;;;;;;23.58;11.10;;;8.80;72.80;;;;;;5110412;28;20043;-75
2023/04/06 08:52:17;;;;;;;18.45;7.72;;;8.80;74.50;;;;;;5110511;28;20508;-75
2023/04/06 08:54:43;;;;;;;16.17;8.23;;;8.80;73.10;;;;;;5110431;28;20039;-75
2023/04/06 08:57:09;;;;;;;20.52;9.00;;;8.80;75.20;;;;;;5109279;28;20450;-75
2023/04/06 08:59:36;;;;;;;20.15;9.80;;;8.70;73.60;;;;;;5109435;28;20384;-75
2023/04/06 09:02:05;;;;;;;21.63;10.05;;;8.80;73.00;;;;;;5110347;28;20035;-75
2023/04/06 09:04:32;;;;;;;14.40;6.35;;;8.80;73.50;;;;;;5110283;28;20029;-75
2023/04/06 09:06:58;;;;;;;18.85;8.25;;;8.80;73.70;;;;;;5110123;28;20029;-75
2023/04/06 09:09:24;;;;;;;19.73;9.35;;;8.90;73.60;;;;;;5110157;28;20021;-75
2023/04/06 09:11:51;;;;;;;19.63;10.15;;;8.90;73.90;;;;;;5109212;28;20488;-75
2023/04/06 09:14:32;;;;;;;20.35;9.20;;;8.90;73.60;;;;;;5109083;28;20022;-75
2023/04/06 09:16:58;;;;;;;21.98;11.60;;;9.00;74.10;;;;;;5110081;28;20384;-75
2023/04/06 09:19:24;;;;;;;19.02;9.15;;;9.10;73.20;;;;;;5110081;28;20025;-75
2023/04/06 09:21:49;;;;;;;19.98;9.27;;;9.00;75.40;;;;;;5108905;28;20025;-75
2023/04/06 09:24:18;;;;;;;20.85;9.30;;;9.00;74.50;;;;;;5108861;28;20036;-75
2023/04/06 09:26:47;;;;;;;17.58;7.95;;;9.00;73.30;;;;;;5108711;28;20033;-75
2023/04/06 09:29:24;;;;;;;21.65;9.18;;;9.00;72.60;;;;;;5108788;28;20032;-75
2023/04/06 09:31:49;;;;;;;21.15;8.93;;;8.90;74.00;;;;;;5109788;28;20019;-75
2023/04/06 09:34:25;;;;;;;20.20;9.50;;;8.90;72.70;;;;;;5109519;28;20040;-75
2023/04/06 09:36:52;;;;;;;21.23;9.23;;;9.00;73.90;;;;;;5118651;28;20083;-75
2023/04/06 09:39:21;;;;;;;19.10;9.40;;;9.00;72.80;;;;;;5082192;28;20387;-75
2023/04/06 09:41:52;;;;;;;21.15;9.85;;;9.00;72.20;;;;;;5116447;28;20028;-76
2023/04/06 09:44:19;;;;;;;19.70;9.23;;;9.00;72.70;;;;;;5116359;28;20058;-75
2023/04/06 09:46:46;;;;;;;16.80;8.43;;;9.00;73.50;;;;;;5116202;28;20491;-75
2023/04/06 09:49:13;;;;;;;19.13;10.07;;;9.00;73.00;;;;;;5116171;28;20027;-75
2023/04/06 09:52:00;;;;;;;19.80;9.00;;;9.10;75.00;;;;;;5115330;28;20028;-75
2023/04/06 09:54:30;;;;;;;19.88;9.60;;;9.10;74.40;;;;;;5115274;28;20052;-75
2023/04/06 09:57:19;;;;;;;17.35;8.13;;;9.10;73.40;;;;;;5116108;28;20046;-75
2023/04/06 10:00:11;;;;;;;23.05;9.63;;;9.20;74.20;;;;;;5116199;28;20410;-75
2023/04/06 10:02:56;;;;;;;21.75;9.05;;;9.20;74.50;;;;;;5115975;28;20031;-75
2023/04/06 10:05:21;;;;;;;23.05;10.30;;;9.20;74.10;;;;;;5115891;28;20032;-75
2023/04/06 10:07:50;;;;;;;20.27;10.15;;;9.20;74.70;;;;;;5114903;28;20047;-75
2023/04/06 10:10:16;;;;;;;21.40;9.90;;;9.20;74.40;;;;;;5115737;28;20020;-74
2023/04/06 10:12:44;;;;;;;21.33;9.68;;;9.30;76.00;;;;;;5115803;28;20016;-75
2023/04/06 10:15:10;;;;;;;21.25;9.68;;;9.30;73.30;;;;;;5114598;28;20430;-75
2023/04/06 10:17:36;;;;;;;19.05;8.38;;;9.40;75.80;;;;;;5114577;28;20043;-75
2023/04/06 10:20:38;;;;;;;19.20;10.10;;;9.50;73.50;;;;;;5114611;28;20039;-75
2023/04/06 10:23:29;;;;;;;21.05;9.27;;;9.60;74.20;;;;;;5105294;28;20032;-75
2023/04/06 10:26:00;;;;;;;17.50;8.65;;;9.70;76.80;;;;;;5113615;28;20040;-75
2023/04/06 10:28:35;;;;;;;18.42;9.57;;;9.70;74.20;;;;;;5115462;28;20035;-75
2023/04/06 10:31:04;;;;;;;19.98;8.85;;;9.80;75.70;;;;;;5115474;28;20468;-75
2023/04/06 10:33:30;;;;;;;16.95;8.32;;;9.90;74.40;;;;;;5115299;28;20084;-75
2023/04/06 10:35:56;;;;;;;17.08;8.63;;;10.00;73.20;;;;;;5115146;28;20047;-75
2023/04/06 10:38:36;;;;;;;17.95;8.07;;;10.10;72.50;;;;;;5114319;28;20028;-75
2023/04/06 10:41:06;;;;;;;20.98;10.02;;;10.10;73.10;;;;;;5115290;28;20023;-75
2023/04/06 10:43:37;;;;;;;17.83;8.25;;;10.20;73.30;;;;;;5115166;28;20028;-75
2023/04/06 10:46:03;;;;;;;17.02;8.95;;;10.30;73.40;;;;;;5114073;28;20024;-75
2023/04/06 10:48:46;;;;;;;18.00;9.38;;;10.30;73.90;;;;;;5114142;28;20469;-75
2023/04/06 10:51:17;;;;;;;18.02;8.88;;;10.30;73.70;;;;;;5115163;28;20050;-75
2023/04/06 10:53:48;;;;;;;16.25;8.52;;;10.40;73.90;;;;;;5114998;28;20020;-75
2023/04/06 10:56:21;;;;;;;18.15;8.82;;;10.30;75.70;;;;;;5113958;28;20034;-76
2023/04/06 10:58:48;;;;;;;16.85;7.63;;;10.40;75.50;;;;;;5114928;28;20035;-75
2023/04/06 11:01:21;;;;;;;18.58;7.57;;;10.40;79.10;;;;;;5114801;28;20035;-75
2023/04/06 11:03:56;;;;;;;15.18;7.85;;;10.40;79.50;;;;;;5113891;28;20050;-75
2023/04/06 11:06:23;;;;;;;15.10;6.95;;;10.40;80.30;;;;;;5114867;28;20087;-75
2023/04/06 11:08:50;;;;;;;15.48;6.63;;;10.40;79.50;;;;;;5114662;28;20503;-75
2023/04/06 11:11:18;;;;;;;11.57;5.20;;;10.30;79.10;;;;;;5114643;28;20042;-75
2023/04/06 11:13:50;;;;;;;9.73;4.88;;;10.30;81.90;;;;;;5114603;28;20020;-75
2023/04/06 11:16:21;;;;;;;9.70;4.97;;;10.20;82.00;;;;;;5114558;28;20032;-75
2023/04/06 11:18:55;;;;;;;14.43;5.65;;;10.10;82.40;;;;;;5114527;28;20021;-75
2023/04/06 11:21:48;;;;;;;13.38;6.32;;;10.10;83.00;;;;;;5097364;28;20028;-75
2023/04/06 11:24:15;;;;;;;12.32;5.75;;;10.10;83.80;;;;;;5114455;28;20028;-75
2023/04/06 11:27:00;;;;;;;11.00;5.97;;;10.10;87.20;;;;;;5114267;28;20051;-75
2023/04/06 11:29:28;;;;;;;8.82;4.80;;;10.00;85.40;;;;;;5114356;28;20012;-75
2023/04/06 11:32:04;;;;;;;10.60;5.32;;;9.90;84.40;;;;;;5113265;28;20028;-75
2023/04/06 11:34:40;;;;;;;7.50;4.00;;;9.90;85.60;;;;;;5114161;28;20062;-75
2023/04/06 11:37:10;;;;;;;7.80;3.30;;;9.90;85.10;;;;;;5114069;28;20047;-75
2023/04/06 11:39:43;;;;;;;6.60;3.47;;;9.80;85.80;;;;;;5114123;28;20083;-75
2023/04/06 11:42:09;;;;;;;10.90;4.22;;;9.70;85.00;;;;;;5114029;28;20024;-75
2023/04/06 11:44:42;;;;;;;8.52;4.57;;;9.60;86.90;;;;;;5114049;28;20071;-75
2023/04/06 11:47:09;;;;;;;6.45;3.10;;;9.60;87.90;;;;;;5114033;28;20028;-75
2023/04/06 11:49:40;;;;;;;6.50;2.70;;;9.60;87.90;;;;;;5113964;28;20048;-76
2023/04/06 11:52:23;;;;;;;6.38;2.85;;;9.60;87.10;;;;;;5114040;28;20065;-76
2023/04/06 11:54:50;;;;;;;9.32;4.45;;;9.50;86.00;;;;;;5113939;28;20020;-76
2023/04/06 11:57:17;;;;;;;7.13;4.03;;;9.50;88.20;;;;;;5113836;28;20027;-76
2023/04/06 11:59:43;;;;;;;7.90;4.25;;;9.40;89.80;;;;;;5112534;28;20039;-76
2023/04/06 12:02:09;;;;;;;7.50;3.63;;;9.30;89.40;;;;;;5113792;28;20016;-76
2023/04/06 12:04:35;;;;;;;10.75;3.60;;;9.40;90.20;;;;;;5112807;28;20016;-76
2023/04/06 12:07:01;;;;;;;4.45;2.40;;;9.40;90.80;;;;;;5113747;28;20084;-76
2023/04/06 12:09:26;;;;;;;9.32;3.95;;;9.30;90.40;;;;;;5112771;28;20418;-76
2023/04/06 12:11:52;;;;;;;8.30;3.85;;;9.20;90.80;;;;;;5113605;28;20024;-76
2023/04/06 12:14:18;;;;;;;6.68;3.45;;;9.20;91.20;;;;;;5113610;28;20024;-76
2023/04/06 12:16:43;;;;;;;8.10;4.55;;;9.30;91.10;;;;;;5113440;28;20066;-76
2023/04/06 12:19:09;;;;;;;8.02;3.70;;;9.30;91.80;;;;;;5113517;28;20024;-76
2023/04/06 12:21:38;;;;;;;4.43;2.13;;;9.20;91.70;;;;;;5112466;28;20081;-76
2023/04/06 12:24:05;;;;;;;7.00;3.13;;;9.20;91.90;;;;;;5112559;28;20028;-76
2023/04/06 12:26:31;;;;;;;10.55;4.43;;;9.10;92.00;;;;;;5113419;28;20028;-76
2023/04/06 12:29:04;;;;;;;8.15;4.20;;;9.10;92.40;;;;;;5113468;28;20035;-76
2023/04/06 12:31:30;;;;;;;8.98;3.30;;;9.10;92.50;;;;;;5113501;28;20039;-76
2023/04/06 12:33:56;;;;;;;5.35;2.95;;;9.20;92.90;;;;;;5112417;28;20035;-76
2023/04/06 12:36:21;;;;;;;7.80;3.38;;;9.30;92.70;;;;;;5113359;28;20060;-76
2023/04/06 12:38:48;;;;;;;8.23;3.20;;;9.20;92.90;;;;;;5113487;28;20032;-76
2023/04/06 12:41:13;;;;;;;10.02;4.45;;;9.10;93.00;;;;;;5113321;28;20036;-76
2023/04/06 12:43:40;;;;;;;7.70;3.60;;;9.20;92.80;;;;;;5112277;28;20038;-76
2023/04/06 12:46:06;;;;;;;10.02;4.88;;;9.10;92.80;;;;;;5113230;28;20024;-76
2023/04/06 12:48:32;;;;;;;7.57;3.67;;;9.20;93.10;;;;;;5113264;28;20039;-76
2023/04/06 12:50:59;;;;;;;7.93;3.90;;;9.30;92.90;;;;;;5113277;28;20059;-76
2023/04/06 12:53:25;;;;;;;6.45;2.97;;;9.30;92.90;;;;;;5112279;28;20023;-77
2023/04/06 12:55:51;;;;;;;12.25;4.45;;;9.20;92.60;;;;;;5113230;28;20021;-77
2023/04/06 12:58:17;;;;;;;8.05;3.80;;;9.10;92.80;;;;;;5113172;28;20020;-77
2023/04/06 13:00:43;;;;;;;10.07;4.85;;;9.10;93.60;;;;;;5113211;28;20027;-77
2023/04/06 13:03:09;;;;;;;10.27;5.30;;;9.30;93.40;;;;;;5112131;28;20035;-77
2023/04/06 13:05:34;;;;;;;11.20;4.15;;;9.30;92.50;;;;;;5113013;28;20050;-76
2023/04/06 13:08:00;;;;;;;6.75;2.95;;;9.30;92.50;;;;;;5113132;28;20028;-76
2023/04/06 13:10:26;;;;;;;12.07;6.32;;;9.30;92.40;;;;;;5113125;28;20028;-76
2023/04/06 13:12:52;;;;;;;8.00;4.60;;;9.20;92.70;;;;;;5115091;28;20465;-76
2023/04/06 13:15:18;;;;;;;11.63;6.10;;;9.30;93.20;;;;;;5116852;28;20088;-77
2023/04/06 13:17:44;;;;;;;9.85;4.55;;;9.30;92.80;;;;;;5116867;28;20032;-76
2023/04/06 13:20:10;;;;;;;11.15;5.13;;;9.30;93.00;;;;;;5116828;28;20465;-76